sensor_id;sensor_type;location;lat;lon;timestamp;pressure;altitude;pressure_sealevel;temperature;humidity
36010;BME280;22076;52.182;5.404;2023-11-19T00:00:26;100951.69;;;18.33;100.00
36010;BME280;22076;52.182;5.404;2023-11-19T00:02:52;100941.81;;;18.45;100.00
36010;BME280;22076;52.182;5.404;2023-11-19T00:05:19;100940.34;;;18.81;100.00
36010;BME280;22076;52.182;5.404;2023-11-19T00:07:55;100950.72;;;19.14;100.00
36010;BME280;22076;52.182;5.404;2023-11-19T00:10:21;100935.25;;;18.99;100.00
36010;BME280;22076;52.182;5.404;2023-11-19T00:12:49;100925.63;;;18.89;100.00
36010;BME280;22076;52.182;5.404;2023-11-19T00:15:17;100931.50;;;18.92;100.00
36010;BME280;22076;52.182;5.404;2023-11-19T00:17:45;100939.44;;;19.02;100.00
36010;BME280;22076;52.182;5.404;2023-11-19T00:20:13;100939.44;;;18.92;100.00
36010;BME280;22076;52.182;5.404;2023-11-19T00:22:40;100938.69;;;18.80;100.00
36010;BME280;22076;52.182;5.404;2023-11-19T00:25:07;100954.88;;;18.87;100.00
36010;BME280;22076;52.182;5.404;2023-11-19T00:27:34;100946.94;;;18.87;100.00
36010;BME280;22076;52.182;5.404;2023-11-19T00:30:07;100933.28;;;18.92;100.00
36010;BME280;22076;52.182;5.404;2023-11-19T00:32:35;100933.03;;;19.14;100.00
36010;BME280;22076;52.182;5.404;2023-11-19T00:35:04;100913.50;;;18.86;100.00
36010;BME280;22076;52.182;5.404;2023-11-19T00:37:33;100909.75;;;18.98;100.00
36010;BME280;22076;52.182;5.404;2023-11-19T00:39:59;100912.25;;;18.90;100.00
36010;BME280;22076;52.182;5.404;2023-11-19T00:42:26;100910.97;;;18.65;100.00
36010;BME280;22076;52.182;5.404;2023-11-19T00:44:52;100914.84;;;18.80;100.00
36010;BME280;22076;52.182;5.404;2023-11-19T00:47:20;100904.59;;;18.97;100.00
36010;BME280;22076;52.182;5.404;2023-11-19T00:49:48;100900.56;;;18.93;100.00
36010;BME280;22076;52.182;5.404;2023-11-19T00:52:15;100907.34;;;18.76;100.00
36010;BME280;22076;52.182;5.404;2023-11-19T00:54:41;100897.44;;;18.58;100.00
36010;BME280;22076;52.182;5.404;2023-11-19T00:57:08;100901.22;;;18.65;100.00
36010;BME280;22076;52.182;5.404;2023-11-19T00:59:35;100904.59;;;18.97;100.00
36010;BME280;22076;52.182;5.404;2023-11-19T01:02:01;100927.97;;;18.82;100.00
36010;BME280;22076;52.182;5.404;2023-11-19T01:04:29;100923.53;;;19.02;100.00
36010;BME280;22076;52.182;5.404;2023-11-19T01:07:01;100921.19;;;19.19;100.00
36010;BME280;22076;52.182;5.404;2023-11-19T01:09:29;100912.41;;;19.08;100.00
36010;BME280;22076;52.182;5.404;2023-11-19T01:11:54;100916.28;;;19.24;100.00
36010;BME280;22076;52.182;5.404;2023-11-19T01:14:21;100905.44;;;18.97;100.00
36010;BME280;22076;52.182;5.404;2023-11-19T01:16:47;100922.41;;;18.85;100.00
36010;BME280;22076;52.182;5.404;2023-11-19T01:19:14;100902.25;;;18.94;100.00
36010;BME280;22076;52.182;5.404;2023-11-19T01:21:40;100896.22;;;19.11;100.00
36010;BME280;22076;52.182;5.404;2023-11-19T01:24:08;100886.59;;;19.10;100.00
36010;BME280;22076;52.182;5.404;2023-11-19T01:26:37;100885.63;;;18.82;100.00
36010;BME280;22076;52.182;5.404;2023-11-19T01:29:04;100886.06;;;18.87;100.00
36010;BME280;22076;52.182;5.404;2023-11-19T01:31:31;100882.56;;;18.87;100.00
36010;BME280;22076;52.182;5.404;2023-11-19T01:33:59;100872.16;;;18.95;100.00
36010;BME280;22076;52.182;5.404;2023-11-19T01:36:25;100888.28;;;18.92;100.00
36010;BME280;22076;52.182;5.404;2023-11-19T01:38:52;100874.47;;;18.88;100.00
36010;BME280;22076;52.182;5.404;2023-11-19T01:41:20;100890.34;;;18.78;100.00
36010;BME280;22076;52.182;5.404;2023-11-19T01:43:46;100875.75;;;18.74;100.00
36010;BME280;22076;52.182;5.404;2023-11-19T01:46:13;100883.94;;;18.81;100.00
36010;BME280;22076;52.182;5.404;2023-11-19T01:48:44;100891.75;;;18.82;100.00
36010;BME280;22076;52.182;5.404;2023-11-19T01:51:12;100888.88;;;19.05;100.00
36010;BME280;22076;52.182;5.404;2023-11-19T01:53:44;100895.41;;;19.11;100.00
36010;BME280;22076;52.182;5.404;2023-11-19T01:56:13;100876.44;;;18.86;100.00
36010;BME280;22076;52.182;5.404;2023-11-19T01:58:43;100884.41;;;19.06;100.00
36010;BME280;22076;52.182;5.404;2023-11-19T02:01:11;100883.69;;;18.74;100.00
36010;BME280;22076;52.182;5.404;2023-11-19T02:03:38;100887.59;;;18.70;100.00
36010;BME280;22076;52.182;5.404;2023-11-19T02:06:07;100876.84;;;18.62;100.00
36010;BME280;22076;52.182;5.404;2023-11-19T02:08:35;100889.50;;;18.78;100.00
36010;BME280;22076;52.182;5.404;2023-11-19T02:11:02;100876.97;;;18.60;100.00
36010;BME280;22076;52.182;5.404;2023-11-19T02:13:28;100868.59;;;18.36;100.00
36010;BME280;22076;52.182;5.404;2023-11-19T02:15:56;100875.19;;;18.71;100.00
36010;BME280;22076;52.182;5.404;2023-11-19T02:18:24;100877.94;;;18.79;100.00
36010;BME280;22076;52.182;5.404;2023-11-19T02:20:53;100881.88;;;18.65;100.00
36010;BME280;22076;52.182;5.404;2023-11-19T02:23:20;100887.16;;;18.75;100.00
36010;BME280;22076;52.182;5.404;2023-11-19T02:25:54;100897.84;;;18.63;100.00
36010;BME280;22076;52.182;5.404;2023-11-19T02:28:25;100895.09;;;18.85;100.00
36010;BME280;22076;52.182;5.404;2023-11-19T02:30:52;100892.59;;;18.73;100.00
36010;BME280;22076;52.182;5.404;2023-11-19T02:33:18;100903.03;;;18.85;100.00
36010;BME280;22076;52.182;5.404;2023-11-19T02:35:45;100898.28;;;18.69;100.00
36010;BME280;22076;52.182;5.404;2023-11-19T02:38:12;100912.19;;;18.61;100.00
36010;BME280;22076;52.182;5.404;2023-11-19T02:40:39;100897.84;;;18.54;100.00
36010;BME280;22076;52.182;5.404;2023-11-19T02:43:06;100887.84;;;18.87;100.00
36010;BME280;22076;52.182;5.404;2023-11-19T02:45:35;100888.00;;;18.85;100.00
36010;BME280;22076;52.182;5.404;2023-11-19T02:48:04;100892.44;;;18.45;100.00
36010;BME280;22076;52.182;5.404;2023-11-19T02:50:32;100897.84;;;18.54;100.00
36010;BME280;22076;52.182;5.404;2023-11-19T02:52:58;100894.53;;;18.61;100.00
36010;BME280;22076;52.182;5.404;2023-11-19T02:55:26;100896.47;;;18.49;100.00
36010;BME280;22076;52.182;5.404;2023-11-19T02:57:55;100887.66;;;18.39;100.00
36010;BME280;22076;52.182;5.404;2023-11-19T03:00:24;100901.03;;;18.38;100.00
36010;BME280;22076;52.182;5.404;2023-11-19T03:02:59;100897.81;;;18.34;100.00
36010;BME280;22076;52.182;5.404;2023-11-19T03:05:30;100878.91;;;18.58;100.00
36010;BME280;22076;52.182;5.404;2023-11-19T03:07:57;100892.81;;;18.41;100.00
36010;BME280;22076;52.182;5.404;2023-11-19T03:10:23;100889.16;;;18.22;100.00
36010;BME280;22076;52.182;5.404;2023-11-19T03:12:51;100889.47;;;18.39;100.00
36010;BME280;22076;52.182;5.404;2023-11-19T03:15:18;100889.47;;;18.29;100.00
36010;BME280;22076;52.182;5.404;2023-11-19T03:17:47;100894.06;;;18.37;100.00
36010;BME280;22076;52.182;5.404;2023-11-19T03:20:15;100897.16;;;18.42;100.00
36010;BME280;22076;52.182;5.404;2023-11-19T03:22:42;100893.50;;;18.33;100.00
36010;BME280;22076;52.182;5.404;2023-11-19T03:25:19;100894.53;;;18.71;100.00
36010;BME280;22076;52.182;5.404;2023-11-19T03:27:46;100902.59;;;18.50;100.00
36010;BME280;22076;52.182;5.404;2023-11-19T03:30:14;100907.88;;;18.50;100.00
36010;BME280;22076;52.182;5.404;2023-11-19T03:32:43;100906.47;;;18.46;100.00
36010;BME280;22076;52.182;5.404;2023-11-19T03:35:09;100892.56;;;18.54;100.00
36010;BME280;22076;52.182;5.404;2023-11-19T03:37:39;100886.19;;;18.76;100.00
36010;BME280;22076;52.182;5.404;2023-11-19T03:40:06;100874.94;;;18.23;100.00
36010;BME280;22076;52.182;5.404;2023-11-19T03:42:33;100877.22;;;18.38;100.00
36010;BME280;22076;52.182;5.404;2023-11-19T03:45:02;100876.56;;;18.55;100.00
36010;BME280;22076;52.182;5.404;2023-11-19T03:47:30;100871.38;;;18.34;100.00
36010;BME280;22076;52.182;5.404;2023-11-19T03:50:04;100878.50;;;18.43;100.00
36010;BME280;22076;52.182;5.404;2023-11-19T03:52:31;100875.13;;;18.31;100.00
36010;BME280;22076;52.182;5.404;2023-11-19T03:54:59;100883.78;;;18.43;100.00
36010;BME280;22076;52.182;5.404;2023-11-19T03:57:27;100889.78;;;18.45;100.00
36010;BME280;22076;52.182;5.404;2023-11-19T03:59:53;100893.34;;;18.25;100.00
36010;BME280;22076;52.182;5.404;2023-11-19T04:02:21;100896.97;;;18.33;100.00
36010;BME280;22076;52.182;5.404;2023-11-19T04:04:47;100905.13;;;18.11;100.00
36010;BME280;22076;52.182;5.404;2023-11-19T04:07:14;100894.84;;;18.08;100.00
36010;BME280;22076;52.182;5.404;2023-11-19T04:09:40;100898.16;;;18.10;100.00
36010;BME280;22076;52.182;5.404;2023-11-19T04:12:10;100893.78;;;18.30;100.00
36010;BME280;22076;52.182;5.404;2023-11-19T04:14:36;100900.47;;;17.93;100.00
36010;BME280;22076;52.182;5.404;2023-11-19T04:17:03;100900.19;;;18.27;100.00
36010;BME280;22076;52.182;5.404;2023-11-19T04:19:30;100900.91;;;17.77;100.00
36010;BME280;22076;52.182;5.404;2023-11-19T04:21:57;100908.72;;;17.79;100.00
36010;BME280;22076;52.182;5.404;2023-11-19T04:24:24;100916.38;;;17.82;100.00
36010;BME280;22076;52.182;5.404;2023-11-19T04:26:51;100922.53;;;18.13;100.00
36010;BME280;22076;52.182;5.404;2023-11-19T04:29:19;100915.97;;;18.08;100.00
36010;BME280;22076;52.182;5.404;2023-11-19T04:31:46;100920.03;;;18.12;100.00
36010;BME280;22076;52.182;5.404;2023-11-19T04:34:13;100919.38;;;18.29;100.00
36010;BME280;22076;52.182;5.404;2023-11-19T04:36:39;100916.75;;;17.98;100.00
36010;BME280;22076;52.182;5.404;2023-11-19T04:39:07;100922.34;;;17.74;100.00
36010;BME280;22076;52.182;5.404;2023-11-19T04:41:45;100908.97;;;17.97;100.00
36010;BME280;22076;52.182;5.404;2023-11-19T04:44:12;100908.06;;;17.87;100.00
36010;BME280;22076;52.182;5.404;2023-11-19T04:46:40;100916.78;;;17.77;100.00
36010;BME280;22076;52.182;5.404;2023-11-19T04:49:08;100925.09;;;17.73;100.00
36010;BME280;22076;52.182;5.404;2023-11-19T04:51:38;100920.28;;;17.78;100.00
36010;BME280;22076;52.182;5.404;2023-11-19T04:54:05;100902.44;;;17.70;100.00
36010;BME280;22076;52.182;5.404;2023-11-19T04:56:32;100909.94;;;17.75;100.00
36010;BME280;22076;52.182;5.404;2023-11-19T04:58:58;100907.50;;;17.62;100.00
36010;BME280;22076;52.182;5.404;2023-11-19T05:01:25;100903.38;;;17.69;100.00
36010;BME280;22076;52.182;5.404;2023-11-19T05:03:53;100909.56;;;17.79;100.00
36010;BME280;22076;52.182;5.404;2023-11-19T05:06:19;100903.13;;;17.72;100.00
36010;BME280;22076;52.182;5.404;2023-11-19T05:08:46;100906.38;;;17.55;100.00
36010;BME280;22076;52.182;5.404;2023-11-19T05:11:12;100923.34;;;17.62;100.00
36010;BME280;22076;52.182;5.404;2023-11-19T05:13:43;100926.84;;;17.62;100.00
36010;BME280;22076;52.182;5.404;2023-11-19T05:16:10;100923.22;;;17.63;100.00
36010;BME280;22076;52.182;5.404;2023-11-19T05:18:39;100926.81;;;17.83;100.00
36010;BME280;22076;52.182;5.404;2023-11-19T05:21:07;100917.03;;;17.74;100.00
36010;BME280;22076;52.182;5.404;2023-11-19T05:23:34;100912.78;;;17.62;100.00
36010;BME280;22076;52.182;5.404;2023-11-19T05:26:00;100927.69;;;17.42;100.00
36010;BME280;22076;52.182;5.404;2023-11-19T05:28:32;100920.50;;;17.75;100.00
36010;BME280;22076;52.182;5.404;2023-11-19T05:30:58;100916.00;;;17.65;100.00
36010;BME280;22076;52.182;5.404;2023-11-19T05:33:25;100923.00;;;17.45;100.00
36010;BME280;22076;52.182;5.404;2023-11-19T05:35:51;100916.72;;;17.46;100.00
36010;BME280;22076;52.182;5.404;2023-11-19T05:38:19;100912.63;;;17.54;100.00
36010;BME280;22076;52.182;5.404;2023-11-19T05:40:46;100914.81;;;17.27;100.00
36010;BME280;22076;52.182;5.404;2023-11-19T05:43:13;100918.69;;;17.44;100.00
36010;BME280;22076;52.182;5.404;2023-11-19T05:45:42;100909.78;;;17.66;100.00
36010;BME280;22076;52.182;5.404;2023-11-19T05:48:09;100919.25;;;17.48;100.00
36010;BME280;22076;52.182;5.404;2023-11-19T05:50:36;100923.31;;;17.52;100.00
36010;BME280;22076;52.182;5.404;2023-11-19T05:53:02;100938.75;;;17.36;100.00
36010;BME280;22076;52.182;5.404;2023-11-19T05:55:33;100932.69;;;17.66;100.00
36010;BME280;22076;52.182;5.404;2023-11-19T05:58:00;100925.88;;;17.42;100.00
36010;BME280;22076;52.182;5.404;2023-11-19T06:00:27;100936.22;;;17.45;100.00
36010;BME280;22076;52.182;5.404;2023-11-19T06:02:53;100935.34;;;17.45;100.00
36010;BME280;22076;52.182;5.404;2023-11-19T06:05:20;100930.53;;;17.50;100.00
36010;BME280;22076;52.182;5.404;2023-11-19T06:07:47;100941.81;;;17.52;100.00
36010;BME280;22076;52.182;5.404;2023-11-19T06:10:15;100937.25;;;17.00;100.00
36010;BME280;22076;52.182;5.404;2023-11-19T06:12:49;100933.66;;;17.44;100.00
36010;BME280;22076;52.182;5.404;2023-11-19T06:15:21;100940.50;;;17.25;100.00
36010;BME280;22076;52.182;5.404;2023-11-19T06:17:47;100934.00;;;17.29;100.00
36010;BME280;22076;52.182;5.404;2023-11-19T06:20:14;100923.44;;;17.29;100.00
36010;BME280;22076;52.182;5.404;2023-11-19T06:22:42;100931.75;;;17.46;100.00
36010;BME280;22076;52.182;5.404;2023-11-19T06:25:11;100937.75;;;17.48;100.00
36010;BME280;22076;52.182;5.404;2023-11-19T06:27:40;100937.63;;;17.49;100.00
36010;BME280;22076;52.182;5.404;2023-11-19T06:30:08;100943.34;;;17.55;100.00
36010;BME280;22076;52.182;5.404;2023-11-19T06:32:35;100938.75;;;17.36;100.00
36010;BME280;22076;52.182;5.404;2023-11-19T06:35:05;100937.41;;;17.20;100.00
36010;BME280;22076;52.182;5.404;2023-11-19T06:37:31;100938.75;;;17.36;100.00
36010;BME280;22076;52.182;5.404;2023-11-19T06:39:58;100932.06;;;17.53;100.00
36010;BME280;22076;52.182;5.404;2023-11-19T06:42:25;100947.72;;;17.44;100.00
36010;BME280;22076;52.182;5.404;2023-11-19T06:44:51;100945.47;;;17.40;100.00
36010;BME280;22076;52.182;5.404;2023-11-19T06:47:19;100948.63;;;17.55;100.00
36010;BME280;22076;52.182;5.404;2023-11-19T06:49:46;100955.06;;;17.41;100.00
36010;BME280;22076;52.182;5.404;2023-11-19T06:52:13;100951.25;;;17.33;100.00
36010;BME280;22076;52.182;5.404;2023-11-19T06:54:39;100960.09;;;17.44;100.00
36010;BME280;22076;52.182;5.404;2023-11-19T06:57:06;100946.41;;;17.39;100.00
36010;BME280;22076;52.182;5.404;2023-11-19T06:59:32;100943.53;;;17.42;100.00
36010;BME280;22076;52.182;5.404;2023-11-19T07:02:01;100951.78;;;17.27;100.00
36010;BME280;22076;52.182;5.404;2023-11-19T07:04:29;100953.06;;;17.00;100.00
36010;BME280;22076;52.182;5.404;2023-11-19T07:06:55;100958.84;;;17.27;100.00
36010;BME280;22076;52.182;5.404;2023-11-19T07:09:22;100963.75;;;17.31;100.00
36010;BME280;22076;52.182;5.404;2023-11-19T07:11:51;100974.91;;;17.35;100.00
36010;BME280;22076;52.182;5.404;2023-11-19T07:14:18;100979.56;;;17.43;100.00
36010;BME280;22076;52.182;5.404;2023-11-19T07:16:45;100972.09;;;17.48;100.00
36010;BME280;22076;52.182;5.404;2023-11-19T07:19:12;100981.19;;;17.23;100.00
36010;BME280;22076;52.182;5.404;2023-11-19T07:21:42;100980.66;;;17.40;100.00
36010;BME280;22076;52.182;5.404;2023-11-19T07:24:10;100981.28;;;17.32;100.00
36010;BME280;22076;52.182;5.404;2023-11-19T07:26:41;100992.31;;;17.59;100.00
36010;BME280;22076;52.182;5.404;2023-11-19T07:29:08;100996.94;;;17.45;100.00
36010;BME280;22076;52.182;5.404;2023-11-19T07:31:34;100988.56;;;17.40;100.00
36010;BME280;22076;52.182;5.404;2023-11-19T07:34:02;100989.91;;;17.34;100.00
36010;BME280;22076;52.182;5.404;2023-11-19T07:36:30;100994.81;;;17.60;100.00
36010;BME280;22076;52.182;5.404;2023-11-19T07:38:58;100995.31;;;17.54;100.00
36010;BME280;22076;52.182;5.404;2023-11-19T07:41:32;100988.94;;;17.57;100.00
36010;BME280;22076;52.182;5.404;2023-11-19T07:43:59;100997.00;;;17.01;100.00
36010;BME280;22076;52.182;5.404;2023-11-19T07:46:26;101003.22;;;17.00;100.00
36010;BME280;22076;52.182;5.404;2023-11-19T07:48:55;100997.69;;;17.36;100.00
36010;BME280;22076;52.182;5.404;2023-11-19T07:51:21;100994.81;;;17.07;100.00
36010;BME280;22076;52.182;5.404;2023-11-19T07:53:48;100991.13;;;17.30;100.00
36010;BME280;22076;52.182;5.404;2023-11-19T07:56:16;100997.69;;;17.36;100.00
36010;BME280;22076;52.182;5.404;2023-11-19T07:58:44;100991.50;;;17.58;100.00
36010;BME280;22076;52.182;5.404;2023-11-19T08:01:11;100991.00;;;17.32;100.00
36010;BME280;22076;52.182;5.404;2023-11-19T08:03:38;100993.00;;;17.40;100.00
36010;BME280;22076;52.182;5.404;2023-11-19T08:06:05;100993.69;;;17.53;100.00
36010;BME280;22076;52.182;5.404;2023-11-19T08:08:32;100992.22;;;17.28;100.00
36010;BME280;22076;52.182;5.404;2023-11-19T08:11:00;100986.94;;;17.49;100.00
36010;BME280;22076;52.182;5.404;2023-11-19T08:13:29;100981.28;;;17.75;100.00
36010;BME280;22076;52.182;5.404;2023-11-19T08:15:59;100986.38;;;17.88;100.00
36010;BME280;22076;52.182;5.404;2023-11-19T08:18:26;100992.03;;;17.41;100.00
36010;BME280;22076;52.182;5.404;2023-11-19T08:20:53;100986.72;;;17.52;100.00
36010;BME280;22076;52.182;5.404;2023-11-19T08:23:21;100991.09;;;17.42;100.00
36010;BME280;22076;52.182;5.404;2023-11-19T08:25:50;100992.81;;;17.53;100.00
36010;BME280;22076;52.182;5.404;2023-11-19T08:28:17;100985.63;;;17.55;100.00
36010;BME280;22076;52.182;5.404;2023-11-19T08:30:45;100984.84;;;17.64;100.00
36010;BME280;22076;52.182;5.404;2023-11-19T08:33:12;100996.41;;;17.51;100.00
36010;BME280;22076;52.182;5.404;2023-11-19T08:35:40;100999.59;;;17.45;100.00
36010;BME280;22076;52.182;5.404;2023-11-19T08:38:06;100997.66;;;17.47;100.00
36010;BME280;22076;52.182;5.404;2023-11-19T08:40:33;100999.91;;;17.52;100.00
36010;BME280;22076;52.182;5.404;2023-11-19T08:42:59;101003.19;;;17.44;100.00
36010;BME280;22076;52.182;5.404;2023-11-19T08:45:26;101000.69;;;17.64;100.00
36010;BME280;22076;52.182;5.404;2023-11-19T08:47:58;101002.19;;;17.78;100.00
36010;BME280;22076;52.182;5.404;2023-11-19T08:50:24;101008.94;;;17.49;100.00
36010;BME280;22076;52.182;5.404;2023-11-19T08:52:51;101006.22;;;17.61;100.00
36010;BME280;22076;52.182;5.404;2023-11-19T08:55:18;101009.84;;;17.81;100.00
36010;BME280;22076;52.182;5.404;2023-11-19T08:57:44;101006.09;;;17.62;100.00
36010;BME280;22076;52.182;5.404;2023-11-19T09:00:12;101004.94;;;17.76;100.00
36010;BME280;22076;52.182;5.404;2023-11-19T09:02:39;101010.31;;;17.65;100.00
36010;BME280;22076;52.182;5.404;2023-11-19T09:05:08;100998.69;;;17.56;100.00
36010;BME280;22076;52.182;5.404;2023-11-19T09:07:34;101008.56;;;17.75;100.00
36010;BME280;22076;52.182;5.404;2023-11-19T09:10:01;101009.13;;;17.79;100.00
36010;BME280;22076;52.182;5.404;2023-11-19T09:12:30;100998.00;;;17.75;100.00
36010;BME280;22076;52.182;5.404;2023-11-19T09:14:56;101002.88;;;17.80;100.00
36010;BME280;22076;52.182;5.404;2023-11-19T09:17:23;101003.47;;;17.62;100.00
36010;BME280;22076;52.182;5.404;2023-11-19T09:19:50;100995.47;;;17.74;100.00
36010;BME280;22076;52.182;5.404;2023-11-19T09:22:18;100989.28;;;18.06;100.00
36010;BME280;22076;52.182;5.404;2023-11-19T09:24:48;101002.31;;;17.97;100.00
36010;BME280;22076;52.182;5.404;2023-11-19T09:27:15;101001.31;;;17.77;100.00
36010;BME280;22076;52.182;5.404;2023-11-19T09:29:42;101002.38;;;17.86;100.00
36010;BME280;22076;52.182;5.404;2023-11-19T09:32:10;101004.56;;;17.81;100.00
36010;BME280;22076;52.182;5.404;2023-11-19T09:34:37;100998.63;;;17.67;100.00
36010;BME280;22076;52.182;5.404;2023-11-19T09:37:04;100998.56;;;17.58;100.00
36010;BME280;22076;52.182;5.404;2023-11-19T09:39:32;100987.91;;;17.90;100.00
36010;BME280;22076;52.182;5.404;2023-11-19T09:41:59;100999.09;;;17.73;100.00
36010;BME280;22076;52.182;5.404;2023-11-19T09:44:26;100991.88;;;17.96;100.00
36010;BME280;22076;52.182;5.404;2023-11-19T09:46:53;100993.34;;;17.67;100.00
36010;BME280;22076;52.182;5.404;2023-11-19T09:49:21;100997.78;;;17.88;100.00
36010;BME280;22076;52.182;5.404;2023-11-19T09:51:49;100993.47;;;17.66;100.00
36010;BME280;22076;52.182;5.404;2023-11-19T09:54:15;100979.50;;;17.75;100.00
36010;BME280;22076;52.182;5.404;2023-11-19T09:56:43;100987.22;;;18.09;100.00
36010;BME280;22076;52.182;5.404;2023-11-19T09:59:10;100979.75;;;17.93;100.00
36010;BME280;22076;52.182;5.404;2023-11-19T10:01:37;100987.16;;;17.78;100.00
36010;BME280;22076;52.182;5.404;2023-11-19T10:04:05;100987.66;;;17.93;100.00
36010;BME280;22076;52.182;5.404;2023-11-19T10:06:32;100990.31;;;18.14;100.00
36010;BME280;22076;52.182;5.404;2023-11-19T10:08:59;100984.97;;;18.05;100.00
36010;BME280;22076;52.182;5.404;2023-11-19T10:11:25;100989.28;;;18.06;100.00
36010;BME280;22076;52.182;5.404;2023-11-19T10:13:53;100993.84;;;18.25;100.00
36010;BME280;22076;52.182;5.404;2023-11-19T10:16:28;100977.00;;;17.95;100.00
36010;BME280;22076;52.182;5.404;2023-11-19T10:18:55;100971.16;;;18.01;100.00
36010;BME280;22076;52.182;5.404;2023-11-19T10:21:22;100973.50;;;17.94;100.00
36010;BME280;22076;52.182;5.404;2023-11-19T10:23:50;100956.53;;;18.28;100.00
36010;BME280;22076;52.182;5.404;2023-11-19T10:26:17;100973.47;;;18.15;100.00
36010;BME280;22076;52.182;5.404;2023-11-19T10:28:45;100959.53;;;18.44;100.00
36010;BME280;22076;52.182;5.404;2023-11-19T10:31:14;100968.81;;;18.39;100.00
36010;BME280;22076;52.182;5.404;2023-11-19T10:33:41;100963.56;;;18.48;100.00
36010;BME280;22076;52.182;5.404;2023-11-19T10:36:10;100983.84;;;18.38;100.00
36010;BME280;22076;52.182;5.404;2023-11-19T10:38:37;100970.41;;;18.51;100.00
36010;BME280;22076;52.182;5.404;2023-11-19T10:41:04;100967.50;;;18.64;100.00
36010;BME280;22076;52.182;5.404;2023-11-19T10:43:31;100965.38;;;18.48;100.00
36010;BME280;22076;52.182;5.404;2023-11-19T10:46:10;100963.00;;;18.45;100.00
36010;BME280;22076;52.182;5.404;2023-11-19T10:48:38;100965.28;;;18.69;100.00
36010;BME280;22076;52.182;5.404;2023-11-19T10:51:07;100960.25;;;18.56;100.00
36010;BME280;22076;52.182;5.404;2023-11-19T10:53:36;100951.19;;;18.59;100.00
36010;BME280;22076;52.182;5.404;2023-11-19T10:56:06;100959.09;;;18.49;100.00
36010;BME280;22076;52.182;5.404;2023-11-19T10:58:36;100952.06;;;18.79;100.00
36010;BME280;22076;52.182;5.404;2023-11-19T11:01:19;100960.91;;;18.99;100.00
36010;BME280;22076;52.182;5.404;2023-11-19T11:03:47;100962.66;;;18.89;100.00
36010;BME280;22076;52.182;5.404;2023-11-19T11:06:17;100965.09;;;18.61;100.00
36010;BME280;22076;52.182;5.404;2023-11-19T11:08:46;100969.28;;;18.63;100.00
36010;BME280;22076;52.182;5.404;2023-11-19T11:11:15;100966.47;;;19.06;100.00
36010;BME280;22076;52.182;5.404;2023-11-19T11:13:42;100958.22;;;18.89;100.00
36010;BME280;22076;52.182;5.404;2023-11-19T11:16:19;100970.94;;;19.25;100.00
36010;BME280;22076;52.182;5.404;2023-11-19T11:18:48;100962.41;;;19.11;100.00
36010;BME280;22076;52.182;5.404;2023-11-19T11:21:17;100959.50;;;19.24;100.00
36010;BME280;22076;52.182;5.404;2023-11-19T11:24:00;100955.59;;;19.28;100.00
36010;BME280;22076;52.182;5.404;2023-11-19T11:26:48;100960.19;;;19.26;100.00
36010;BME280;22076;52.182;5.404;2023-11-19T11:29:24;100951.81;;;18.92;100.00
36010;BME280;22076;52.182;5.404;2023-11-19T11:31:59;100954.22;;;19.14;100.00
36010;BME280;22076;52.182;5.404;2023-11-19T11:34:46;100951.00;;;19.11;100.00
36010;BME280;22076;52.182;5.404;2023-11-19T11:37:18;100940.97;;;18.95;100.00
36010;BME280;22076;52.182;5.404;2023-11-19T11:39:46;100952.78;;;18.91;100.00
36010;BME280;22076;52.182;5.404;2023-11-19T11:42:34;100946.69;;;19.20;100.00
36010;BME280;22076;52.182;5.404;2023-11-19T11:45:02;100918.25;;;18.92;100.00
36010;BME280;22076;52.182;5.404;2023-11-19T11:48:11;100951.56;;;19.34;100.00
36010;BME280;22076;52.182;5.404;2023-11-19T11:50:53;100946.38;;;19.13;100.00
36010;BME280;22076;52.182;5.404;2023-11-19T11:53:22;100931.00;;;18.58;100.00
36010;BME280;22076;52.182;5.404;2023-11-19T11:55:59;100939.16;;;18.95;100.00
36010;BME280;22076;52.182;5.404;2023-11-19T11:58:35;100946.66;;;18.90;100.00
36010;BME280;22076;52.182;5.404;2023-11-19T12:01:03;100929.53;;;18.94;100.00
36010;BME280;22076;52.182;5.404;2023-11-19T12:03:32;100940.94;;;18.85;100.00
36010;BME280;22076;52.182;5.404;2023-11-19T12:06:00;100940.19;;;18.54;100.00
36010;BME280;22076;52.182;5.404;2023-11-19T12:08:29;100928.59;;;19.05;100.00
36010;BME280;22076;52.182;5.404;2023-11-19T12:10:57;100933.56;;;18.98;100.00
36010;BME280;22076;52.182;5.404;2023-11-19T12:13:42;100936.59;;;18.84;100.00
36010;BME280;22076;52.182;5.404;2023-11-19T12:16:10;100931.06;;;18.87;100.00
36010;BME280;22076;52.182;5.404;2023-11-19T12:18:39;100926.22;;;19.12;100.00
36010;BME280;22076;52.182;5.404;2023-11-19T12:21:08;100932.06;;;19.06;100.00
36010;BME280;22076;52.182;5.404;2023-11-19T12:23:44;100920.75;;;19.23;100.00
36010;BME280;22076;52.182;5.404;2023-11-19T12:26:21;100930.63;;;19.41;100.00
36010;BME280;22076;52.182;5.404;2023-11-19T12:28:59;100923.66;;;19.50;100.00
36010;BME280;22076;52.182;5.404;2023-11-19T12:31:29;100933.56;;;19.18;100.00
36010;BME280;22076;52.182;5.404;2023-11-19T12:33:55;100920.75;;;19.04;100.00
36010;BME280;22076;52.182;5.404;2023-11-19T12:36:23;100930.81;;;19.20;100.00
36010;BME280;22076;52.182;5.404;2023-11-19T12:38:50;100931.34;;;19.13;100.00
36010;BME280;22076;52.182;5.404;2023-11-19T12:41:16;100920.47;;;19.17;100.00
36010;BME280;22076;52.182;5.404;2023-11-19T12:43:45;100939.25;;;18.84;100.00
36010;BME280;22076;52.182;5.404;2023-11-19T12:46:18;100925.34;;;19.21;100.00